sensor_id;sensor_type;location;lat;lon;timestamp;P1;durP1;ratioP1;P2;durP2;ratioP2
74421;SDS011;62856;51.446;8.360;2022-08-19T00:01:57;18.30;;;10.70;;
74421;SDS011;62856;51.446;8.360;2022-08-19T00:04:25;20.35;;;11.23;;
74421;SDS011;62856;51.446;8.360;2022-08-19T00:06:58;19.05;;;10.70;;
74421;SDS011;62856;51.446;8.360;2022-08-19T00:09:24;16.35;;;9.80;;
74421;SDS011;62856;51.446;8.360;2022-08-19T00:11:53;21.15;;;10.90;;
74421;SDS011;62856;51.446;8.360;2022-08-19T00:14:20;17.20;;;10.13;;
74421;SDS011;62856;51.446;8.360;2022-08-19T00:16:47;19.27;;;10.82;;
74421;SDS011;62856;51.446;8.360;2022-08-19T00:19:13;18.73;;;11.23;;
74421;SDS011;62856;51.446;8.360;2022-08-19T00:21:40;20.40;;;10.95;;
74421;SDS011;62856;51.446;8.360;2022-08-19T00:24:07;21.73;;;10.80;;
74421;SDS011;62856;51.446;8.360;2022-08-19T00:26:34;16.83;;;10.30;;
74421;SDS011;62856;51.446;8.360;2022-08-19T00:29:00;20.38;;;9.77;;
74421;SDS011;62856;51.446;8.360;2022-08-19T00:31:26;22.85;;;11.43;;
74421;SDS011;62856;51.446;8.360;2022-08-19T00:33:53;20.45;;;10.40;;
74421;SDS011;62856;51.446;8.360;2022-08-19T00:36:19;21.08;;;9.43;;
74421;SDS011;62856;51.446;8.360;2022-08-19T00:38:44;22.15;;;10.63;;
74421;SDS011;62856;51.446;8.360;2022-08-19T00:41:12;21.70;;;9.43;;
74421;SDS011;62856;51.446;8.360;2022-08-19T00:43:39;22.67;;;9.30;;
74421;SDS011;62856;51.446;8.360;2022-08-19T00:46:06;21.35;;;8.85;;
74421;SDS011;62856;51.446;8.360;2022-08-19T00:48:32;19.75;;;8.05;;
74421;SDS011;62856;51.446;8.360;2022-08-19T00:50:59;15.98;;;7.40;;
74421;SDS011;62856;51.446;8.360;2022-08-19T00:53:26;19.88;;;7.70;;
74421;SDS011;62856;51.446;8.360;2022-08-19T00:55:54;14.55;;;8.10;;
74421;SDS011;62856;51.446;8.360;2022-08-19T00:58:22;17.40;;;9.00;;
74421;SDS011;62856;51.446;8.360;2022-08-19T01:00:52;22.27;;;8.85;;
74421;SDS011;62856;51.446;8.360;2022-08-19T01:03:18;18.52;;;8.45;;
74421;SDS011;62856;51.446;8.360;2022-08-19T01:05:45;19.20;;;8.18;;
74421;SDS011;62856;51.446;8.360;2022-08-19T01:08:13;18.90;;;9.02;;
74421;SDS011;62856;51.446;8.360;2022-08-19T01:10:42;15.52;;;8.77;;
74421;SDS011;62856;51.446;8.360;2022-08-19T01:13:15;20.30;;;8.27;;
74421;SDS011;62856;51.446;8.360;2022-08-19T01:15:45;16.60;;;9.00;;
74421;SDS011;62856;51.446;8.360;2022-08-19T01:18:15;16.95;;;9.95;;
74421;SDS011;62856;51.446;8.360;2022-08-19T01:20:43;20.45;;;8.40;;
74421;SDS011;62856;51.446;8.360;2022-08-19T01:23:09;19.92;;;8.15;;
74421;SDS011;62856;51.446;8.360;2022-08-19T01:25:45;14.32;;;7.65;;
74421;SDS011;62856;51.446;8.360;2022-08-19T01:28:25;17.50;;;8.60;;
74421;SDS011;62856;51.446;8.360;2022-08-19T01:30:52;19.65;;;10.70;;
74421;SDS011;62856;51.446;8.360;2022-08-19T01:33:19;18.30;;;8.27;;
74421;SDS011;62856;51.446;8.360;2022-08-19T01:35:45;18.15;;;8.32;;
74421;SDS011;62856;51.446;8.360;2022-08-19T01:38:20;18.02;;;9.10;;
74421;SDS011;62856;51.446;8.360;2022-08-19T01:40:49;17.05;;;8.65;;
74421;SDS011;62856;51.446;8.360;2022-08-19T01:43:15;18.08;;;8.40;;
74421;SDS011;62856;51.446;8.360;2022-08-19T01:45:41;19.42;;;8.35;;
74421;SDS011;62856;51.446;8.360;2022-08-19T01:48:07;14.90;;;8.73;;
74421;SDS011;62856;51.446;8.360;2022-08-19T01:50:33;18.88;;;9.75;;
74421;SDS011;62856;51.446;8.360;2022-08-19T01:53:00;19.80;;;8.45;;
74421;SDS011;62856;51.446;8.360;2022-08-19T01:55:26;14.45;;;8.45;;
74421;SDS011;62856;51.446;8.360;2022-08-19T01:57:59;18.58;;;8.52;;
74421;SDS011;62856;51.446;8.360;2022-08-19T02:00:29;16.35;;;8.55;;
74421;SDS011;62856;51.446;8.360;2022-08-19T02:02:56;15.25;;;8.40;;
74421;SDS011;62856;51.446;8.360;2022-08-19T02:05:21;16.67;;;7.85;;
74421;SDS011;62856;51.446;8.360;2022-08-19T02:07:48;18.55;;;8.10;;
74421;SDS011;62856;51.446;8.360;2022-08-19T02:10:15;19.02;;;9.98;;
74421;SDS011;62856;51.446;8.360;2022-08-19T02:12:43;17.60;;;9.20;;
74421;SDS011;62856;51.446;8.360;2022-08-19T02:15:09;14.85;;;7.47;;
74421;SDS011;62856;51.446;8.360;2022-08-19T02:17:35;17.17;;;9.23;;
74421;SDS011;62856;51.446;8.360;2022-08-19T02:20:00;19.65;;;9.98;;
74421;SDS011;62856;51.446;8.360;2022-08-19T02:22:26;16.58;;;9.07;;
74421;SDS011;62856;51.446;8.360;2022-08-19T02:24:52;17.40;;;8.38;;
74421;SDS011;62856;51.446;8.360;2022-08-19T02:27:18;18.85;;;10.45;;
74421;SDS011;62856;51.446;8.360;2022-08-19T02:29:45;15.88;;;8.82;;
74421;SDS011;62856;51.446;8.360;2022-08-19T02:34:36;17.23;;;8.90;;
74421;SDS011;62856;51.446;8.360;2022-08-19T02:37:02;19.10;;;9.23;;
74421;SDS011;62856;51.446;8.360;2022-08-19T02:39:27;15.98;;;8.52;;
74421;SDS011;62856;51.446;8.360;2022-08-19T02:41:52;17.63;;;9.23;;
74421;SDS011;62856;51.446;8.360;2022-08-19T02:44:18;19.40;;;9.40;;
74421;SDS011;62856;51.446;8.360;2022-08-19T02:46:44;15.32;;;8.73;;
74421;SDS011;62856;51.446;8.360;2022-08-19T02:49:11;17.55;;;9.82;;
74421;SDS011;62856;51.446;8.360;2022-08-19T02:51:42;19.15;;;9.05;;
74421;SDS011;62856;51.446;8.360;2022-08-19T02:54:09;19.98;;;9.23;;
74421;SDS011;62856;51.446;8.360;2022-08-19T02:56:36;19.08;;;9.65;;
74421;SDS011;62856;51.446;8.360;2022-08-19T02:59:04;19.50;;;9.73;;
74421;SDS011;62856;51.446;8.360;2022-08-19T03:01:34;15.35;;;9.02;;
74421;SDS011;62856;51.446;8.360;2022-08-19T03:04:01;18.80;;;9.93;;
74421;SDS011;62856;51.446;8.360;2022-08-19T03:06:29;16.42;;;9.02;;
74421;SDS011;62856;51.446;8.360;2022-08-19T03:08:55;18.25;;;8.57;;
74421;SDS011;62856;51.446;8.360;2022-08-19T03:13:48;15.43;;;8.30;;
74421;SDS011;62856;51.446;8.360;2022-08-19T03:16:15;17.75;;;8.43;;
74421;SDS011;62856;51.446;8.360;2022-08-19T03:18:42;22.00;;;8.77;;
74421;SDS011;62856;51.446;8.360;2022-08-19T03:21:07;13.98;;;7.65;;
74421;SDS011;62856;51.446;8.360;2022-08-19T03:23:33;17.08;;;9.25;;
74421;SDS011;62856;51.446;8.360;2022-08-19T03:25:59;18.00;;;9.65;;
74421;SDS011;62856;51.446;8.360;2022-08-19T03:28:29;17.42;;;9.52;;
74421;SDS011;62856;51.446;8.360;2022-08-19T03:30:59;19.17;;;9.55;;
74421;SDS011;62856;51.446;8.360;2022-08-19T03:33:28;19.45;;;10.02;;
74421;SDS011;62856;51.446;8.360;2022-08-19T03:38:28;17.25;;;9.25;;
74421;SDS011;62856;51.446;8.360;2022-08-19T03:40:54;21.35;;;10.50;;
74421;SDS011;62856;51.446;8.360;2022-08-19T03:43:19;20.05;;;10.00;;
74421;SDS011;62856;51.446;8.360;2022-08-19T03:45:45;21.73;;;9.52;;
74421;SDS011;62856;51.446;8.360;2022-08-19T03:48:10;23.45;;;9.82;;
74421;SDS011;62856;51.446;8.360;2022-08-19T03:50:39;22.65;;;10.35;;
74421;SDS011;62856;51.446;8.360;2022-08-19T03:53:05;24.98;;;10.52;;
74421;SDS011;62856;51.446;8.360;2022-08-19T03:55:32;28.52;;;11.23;;
74421;SDS011;62856;51.446;8.360;2022-08-19T03:57:57;21.48;;;10.15;;
74421;SDS011;62856;51.446;8.360;2022-08-19T04:00:23;24.23;;;10.32;;
74421;SDS011;62856;51.446;8.360;2022-08-19T04:02:48;25.65;;;11.50;;
74421;SDS011;62856;51.446;8.360;2022-08-19T04:05:14;19.70;;;10.00;;
74421;SDS011;62856;51.446;8.360;2022-08-19T04:07:39;26.38;;;10.60;;
74421;SDS011;62856;51.446;8.360;2022-08-19T04:10:05;24.02;;;9.88;;
74421;SDS011;62856;51.446;8.360;2022-08-19T04:12:31;23.65;;;10.15;;
74421;SDS011;62856;51.446;8.360;2022-08-19T04:14:56;25.30;;;10.48;;
74421;SDS011;62856;51.446;8.360;2022-08-19T04:17:23;25.30;;;10.10;;
74421;SDS011;62856;51.446;8.360;2022-08-19T04:19:48;28.52;;;10.38;;
74421;SDS011;62856;51.446;8.360;2022-08-19T04:22:14;24.42;;;9.82;;
74421;SDS011;62856;51.446;8.360;2022-08-19T04:24:39;21.95;;;10.43;;
74421;SDS011;62856;51.446;8.360;2022-08-19T04:27:05;26.13;;;10.95;;
74421;SDS011;62856;51.446;8.360;2022-08-19T04:29:33;27.85;;;10.98;;
74421;SDS011;62856;51.446;8.360;2022-08-19T04:31:59;27.10;;;9.35;;
74421;SDS011;62856;51.446;8.360;2022-08-19T04:34:25;24.80;;;8.90;;
74421;SDS011;62856;51.446;8.360;2022-08-19T04:36:53;32.55;;;12.32;;
74421;SDS011;62856;51.446;8.360;2022-08-19T04:39:28;31.73;;;10.27;;
74421;SDS011;62856;51.446;8.360;2022-08-19T04:42:14;24.52;;;11.27;;
74421;SDS011;62856;51.446;8.360;2022-08-19T04:45:00;23.23;;;10.10;;
74421;SDS011;62856;51.446;8.360;2022-08-19T04:47:27;29.00;;;10.77;;
74421;SDS011;62856;51.446;8.360;2022-08-19T04:49:53;25.35;;;11.15;;
74421;SDS011;62856;51.446;8.360;2022-08-19T04:52:18;31.17;;;11.52;;
74421;SDS011;62856;51.446;8.360;2022-08-19T04:54:43;27.17;;;10.88;;
74421;SDS011;62856;51.446;8.360;2022-08-19T04:57:09;24.77;;;9.75;;
74421;SDS011;62856;51.446;8.360;2022-08-19T04:59:35;37.85;;;11.93;;
74421;SDS011;62856;51.446;8.360;2022-08-19T05:02:06;32.35;;;11.95;;
74421;SDS011;62856;51.446;8.360;2022-08-19T05:04:33;39.10;;;10.10;;
74421;SDS011;62856;51.446;8.360;2022-08-19T05:06:59;33.25;;;10.45;;
74421;SDS011;62856;51.446;8.360;2022-08-19T05:09:25;28.92;;;9.77;;
74421;SDS011;62856;51.446;8.360;2022-08-19T05:11:51;29.15;;;11.65;;
74421;SDS011;62856;51.446;8.360;2022-08-19T05:14:17;29.67;;;11.48;;
74421;SDS011;62856;51.446;8.360;2022-08-19T05:16:44;33.47;;;11.00;;
74421;SDS011;62856;51.446;8.360;2022-08-19T05:19:10;32.17;;;11.35;;
74421;SDS011;62856;51.446;8.360;2022-08-19T05:21:54;27.27;;;10.50;;
74421;SDS011;62856;51.446;8.360;2022-08-19T05:24:41;25.35;;;9.52;;
74421;SDS011;62856;51.446;8.360;2022-08-19T05:27:06;24.40;;;8.98;;
74421;SDS011;62856;51.446;8.360;2022-08-19T05:29:32;23.27;;;9.30;;
74421;SDS011;62856;51.446;8.360;2022-08-19T05:31:59;19.88;;;10.45;;
74421;SDS011;62856;51.446;8.360;2022-08-19T05:34:25;18.88;;;9.35;;
74421;SDS011;62856;51.446;8.360;2022-08-19T05:36:56;18.88;;;9.68;;
74421;SDS011;62856;51.446;8.360;2022-08-19T05:39:24;22.20;;;10.20;;
74421;SDS011;62856;51.446;8.360;2022-08-19T05:41:54;20.60;;;9.65;;
74421;SDS011;62856;51.446;8.360;2022-08-19T05:44:22;16.92;;;9.00;;
74421;SDS011;62856;51.446;8.360;2022-08-19T05:46:51;20.55;;;9.35;;
74421;SDS011;62856;51.446;8.360;2022-08-19T05:49:18;22.42;;;9.23;;
74421;SDS011;62856;51.446;8.360;2022-08-19T05:51:45;18.35;;;9.57;;
74421;SDS011;62856;51.446;8.360;2022-08-19T05:54:10;18.85;;;10.02;;
74421;SDS011;62856;51.446;8.360;2022-08-19T05:59:04;23.08;;;10.15;;
74421;SDS011;62856;51.446;8.360;2022-08-19T06:01:36;23.75;;;10.15;;
74421;SDS011;62856;51.446;8.360;2022-08-19T06:06:29;28.08;;;11.13;;
74421;SDS011;62856;51.446;8.360;2022-08-19T06:08:54;24.65;;;11.00;;
74421;SDS011;62856;51.446;8.360;2022-08-19T06:14:09;23.00;;;10.55;;
74421;SDS011;62856;51.446;8.360;2022-08-19T06:16:39;20.58;;;10.35;;
74421;SDS011;62856;51.446;8.360;2022-08-19T06:21:33;23.42;;;10.85;;
74421;SDS011;62856;51.446;8.360;2022-08-19T06:24:02;21.17;;;11.18;;
74421;SDS011;62856;51.446;8.360;2022-08-19T06:26:34;20.50;;;10.02;;
74421;SDS011;62856;51.446;8.360;2022-08-19T06:29:04;26.17;;;10.57;;
74421;SDS011;62856;51.446;8.360;2022-08-19T06:31:31;19.48;;;10.68;;
74421;SDS011;62856;51.446;8.360;2022-08-19T06:33:59;20.73;;;9.95;;
74421;SDS011;62856;51.446;8.360;2022-08-19T06:36:28;15.13;;;8.43;;
74421;SDS011;62856;51.446;8.360;2022-08-19T06:39:18;17.38;;;8.70;;
74421;SDS011;62856;51.446;8.360;2022-08-19T06:41:45;16.27;;;7.60;;
74421;SDS011;62856;51.446;8.360;2022-08-19T06:44:12;14.02;;;7.18;;
74421;SDS011;62856;51.446;8.360;2022-08-19T06:46:38;14.07;;;7.43;;
74421;SDS011;62856;51.446;8.360;2022-08-19T06:49:05;12.93;;;5.93;;
74421;SDS011;62856;51.446;8.360;2022-08-19T06:51:33;11.13;;;5.90;;
74421;SDS011;62856;51.446;8.360;2022-08-19T06:53:59;11.38;;;5.30;;
74421;SDS011;62856;51.446;8.360;2022-08-19T06:56:26;10.00;;;4.90;;
74421;SDS011;62856;51.446;8.360;2022-08-19T06:59:03;11.18;;;5.63;;
74421;SDS011;62856;51.446;8.360;2022-08-19T07:01:35;12.88;;;5.72;;
74421;SDS011;62856;51.446;8.360;2022-08-19T07:04:03;12.25;;;5.57;;
74421;SDS011;62856;51.446;8.360;2022-08-19T07:06:29;9.90;;;5.10;;
74421;SDS011;62856;51.446;8.360;2022-08-19T07:08:56;15.00;;;5.85;;
74421;SDS011;62856;51.446;8.360;2022-08-19T07:11:22;14.35;;;5.85;;
74421;SDS011;62856;51.446;8.360;2022-08-19T07:13:48;12.63;;;5.57;;
74421;SDS011;62856;51.446;8.360;2022-08-19T07:16:15;13.73;;;5.75;;
74421;SDS011;62856;51.446;8.360;2022-08-19T15:45:20;9.82;;;5.72;;
74421;SDS011;62856;51.446;8.360;2022-08-19T15:47:46;9.75;;;5.25;;
74421;SDS011;62856;51.446;8.360;2022-08-19T15:50:16;10.68;;;6.55;;
74421;SDS011;62856;51.446;8.360;2022-08-19T15:52:48;9.07;;;5.20;;
74421;SDS011;62856;51.446;8.360;2022-08-19T15:55:19;12.93;;;5.95;;
74421;SDS011;62856;51.446;8.360;2022-08-19T15:57:47;11.30;;;6.28;;
74421;SDS011;62856;51.446;8.360;2022-08-19T16:00:31;11.52;;;6.10;;
74421;SDS011;62856;51.446;8.360;2022-08-19T16:03:15;10.43;;;5.72;;
74421;SDS011;62856;51.446;8.360;2022-08-19T16:05:59;10.35;;;6.35;;
74421;SDS011;62856;51.446;8.360;2022-08-19T16:08:43;10.65;;;6.00;;
74421;SDS011;62856;51.446;8.360;2022-08-19T16:11:11;10.38;;;6.40;;
74421;SDS011;62856;51.446;8.360;2022-08-19T16:13:37;9.13;;;5.57;;
74421;SDS011;62856;51.446;8.360;2022-08-19T16:16:03;10.88;;;6.93;;
74421;SDS011;62856;51.446;8.360;2022-08-19T16:18:30;10.52;;;6.78;;
74421;SDS011;62856;51.446;8.360;2022-08-19T16:20:55;11.48;;;6.43;;
74421;SDS011;62856;51.446;8.360;2022-08-19T16:23:21;12.53;;;7.43;;
74421;SDS011;62856;51.446;8.360;2022-08-19T16:25:46;13.18;;;7.22;;
74421;SDS011;62856;51.446;8.360;2022-08-19T16:28:12;11.55;;;6.82;;
74421;SDS011;62856;51.446;8.360;2022-08-19T16:30:38;10.88;;;7.30;;
74421;SDS011;62856;51.446;8.360;2022-08-19T16:33:07;10.57;;;6.45;;
74421;SDS011;62856;51.446;8.360;2022-08-19T16:35:33;11.10;;;6.45;;
74421;SDS011;62856;51.446;8.360;2022-08-19T16:37:58;13.52;;;7.40;;
74421;SDS011;62856;51.446;8.360;2022-08-19T16:40:24;10.80;;;6.68;;
74421;SDS011;62856;51.446;8.360;2022-08-19T16:42:49;12.88;;;7.03;;
74421;SDS011;62856;51.446;8.360;2022-08-19T16:45:16;11.18;;;6.03;;
74421;SDS011;62856;51.446;8.360;2022-08-19T16:47:43;11.57;;;5.78;;
74421;SDS011;62856;51.446;8.360;2022-08-19T16:50:08;11.35;;;6.78;;
74421;SDS011;62856;51.446;8.360;2022-08-19T16:52:34;11.50;;;6.88;;
74421;SDS011;62856;51.446;8.360;2022-08-19T16:55:00;9.95;;;6.20;;
74421;SDS011;62856;51.446;8.360;2022-08-19T16:57:26;9.90;;;5.70;;
74421;SDS011;62856;51.446;8.360;2022-08-19T16:59:51;13.40;;;6.65;;
74421;SDS011;62856;51.446;8.360;2022-08-19T17:02:17;9.98;;;6.35;;
74421;SDS011;62856;51.446;8.360;2022-08-19T17:04:45;10.20;;;6.10;;
74421;SDS011;62856;51.446;8.360;2022-08-19T17:07:13;10.90;;;6.22;;
74421;SDS011;62856;51.446;8.360;2022-08-19T17:09:39;10.95;;;7.38;;
74421;SDS011;62856;51.446;8.360;2022-08-19T17:12:04;11.20;;;7.18;;
74421;SDS011;62856;51.446;8.360;2022-08-19T17:14:32;12.40;;;7.40;;
74421;SDS011;62856;51.446;8.360;2022-08-19T17:16:58;11.13;;;7.68;;
74421;SDS011;62856;51.446;8.360;2022-08-19T17:19:24;11.80;;;7.90;;
74421;SDS011;62856;51.446;8.360;2022-08-19T17:21:49;14.27;;;7.97;;
74421;SDS011;62856;51.446;8.360;2022-08-19T17:24:15;12.63;;;7.28;;
74421;SDS011;62856;51.446;8.360;2022-08-19T17:26:40;12.45;;;6.57;;
74421;SDS011;62856;51.446;8.360;2022-08-19T17:29:06;13.75;;;6.70;;
74421;SDS011;62856;51.446;8.360;2022-08-19T17:31:31;12.10;;;7.28;;
74421;SDS011;62856;51.446;8.360;2022-08-19T17:33:57;10.70;;;6.97;;
74421;SDS011;62856;51.446;8.360;2022-08-19T17:36:24;12.65;;;7.13;;
74421;SDS011;62856;51.446;8.360;2022-08-19T17:38:52;13.05;;;7.88;;
74421;SDS011;62856;51.446;8.360;2022-08-19T17:41:19;12.45;;;8.07;;
74421;SDS011;62856;51.446;8.360;2022-08-19T17:43:45;11.75;;;6.60;;
74421;SDS011;62856;51.446;8.360;2022-08-19T17:46:10;13.20;;;7.43;;
74421;SDS011;62856;51.446;8.360;2022-08-19T17:48:40;11.18;;;7.10;;
74421;SDS011;62856;51.446;8.360;2022-08-19T17:51:16;12.95;;;7.38;;
74421;SDS011;62856;51.446;8.360;2022-08-19T17:53:45;12.20;;;7.22;;
74421;SDS011;62856;51.446;8.360;2022-08-19T17:56:11;11.13;;;6.82;;
74421;SDS011;62856;51.446;8.360;2022-08-19T17:58:37;11.55;;;6.97;;
74421;SDS011;62856;51.446;8.360;2022-08-19T18:01:06;10.93;;;6.55;;
74421;SDS011;62856;51.446;8.360;2022-08-19T18:03:35;10.68;;;6.53;;
74421;SDS011;62856;51.446;8.360;2022-08-19T18:06:01;12.77;;;7.68;;
74421;SDS011;62856;51.446;8.360;2022-08-19T18:08:26;10.95;;;6.63;;
74421;SDS011;62856;51.446;8.360;2022-08-19T18:10:52;10.90;;;6.78;;
74421;SDS011;62856;51.446;8.360;2022-08-19T18:13:18;13.18;;;6.63;;
74421;SDS011;62856;51.446;8.360;2022-08-19T18:15:43;11.73;;;6.43;;
74421;SDS011;62856;51.446;8.360;2022-08-19T18:18:09;12.27;;;6.97;;
74421;SDS011;62856;51.446;8.360;2022-08-19T18:20:35;13.50;;;6.72;;
74421;SDS011;62856;51.446;8.360;2022-08-19T18:23:01;11.85;;;6.55;;
74421;SDS011;62856;51.446;8.360;2022-08-19T18:25:27;11.07;;;6.38;;
74421;SDS011;62856;51.446;8.360;2022-08-19T18:27:54;11.23;;;6.28;;
74421;SDS011;62856;51.446;8.360;2022-08-19T18:30:22;10.55;;;6.13;;
74421;SDS011;62856;51.446;8.360;2022-08-19T18:32:48;13.18;;;6.10;;
74421;SDS011;62856;51.446;8.360;2022-08-19T18:35:19;9.52;;;5.90;;
74421;SDS011;62856;51.446;8.360;2022-08-19T18:37:50;9.00;;;5.20;;
74421;SDS011;62856;51.446;8.360;2022-08-19T18:40:17;12.00;;;5.97;;
74421;SDS011;62856;51.446;8.360;2022-08-19T18:43:03;14.40;;;5.88;;
74421;SDS011;62856;51.446;8.360;2022-08-19T18:45:48;10.32;;;5.78;;
74421;SDS011;62856;51.446;8.360;2022-08-19T18:48:32;10.57;;;5.40;;
74421;SDS011;62856;51.446;8.360;2022-08-19T18:51:16;11.85;;;4.97;;
74421;SDS011;62856;51.446;8.360;2022-08-19T18:53:43;12.60;;;5.93;;
74421;SDS011;62856;51.446;8.360;2022-08-19T18:56:12;10.57;;;5.75;;
74421;SDS011;62856;51.446;8.360;2022-08-19T18:58:38;8.98;;;5.28;;
74421;SDS011;62856;51.446;8.360;2022-08-19T19:01:07;9.55;;;5.15;;
74421;SDS011;62856;51.446;8.360;2022-08-19T19:03:44;9.75;;;5.40;;
74421;SDS011;62856;51.446;8.360;2022-08-19T19:06:13;11.60;;;5.38;;
74421;SDS011;62856;51.446;8.360;2022-08-19T19:08:42;11.13;;;5.70;;
74421;SDS011;62856;51.446;8.360;2022-08-19T19:11:08;9.93;;;5.10;;
74421;SDS011;62856;51.446;8.360;2022-08-19T19:13:34;9.40;;;5.32;;
74421;SDS011;62856;51.446;8.360;2022-08-19T19:16:01;11.00;;;5.10;;
74421;SDS011;62856;51.446;8.360;2022-08-19T19:18:27;10.10;;;5.00;;
74421;SDS011;62856;51.446;8.360;2022-08-19T19:20:53;11.23;;;5.30;;
74421;SDS011;62856;51.446;8.360;2022-08-19T19:23:19;9.57;;;5.38;;
74421;SDS011;62856;51.446;8.360;2022-08-19T19:25:45;9.13;;;5.60;;
74421;SDS011;62856;51.446;8.360;2022-08-19T19:28:11;10.00;;;5.35;;
74421;SDS011;62856;51.446;8.360;2022-08-19T19:30:36;11.88;;;5.03;;
74421;SDS011;62856;51.446;8.360;2022-08-19T19:33:04;10.57;;;5.03;;
74421;SDS011;62856;51.446;8.360;2022-08-19T19:35:29;10.55;;;5.10;;
74421;SDS011;62856;51.446;8.360;2022-08-19T19:37:56;10.07;;;5.00;;
74421;SDS011;62856;51.446;8.360;2022-08-19T19:40:22;10.20;;;5.32;;
74421;SDS011;62856;51.446;8.360;2022-08-19T19:42:48;10.02;;;5.35;;
74421;SDS011;62856;51.446;8.360;2022-08-19T19:45:15;10.52;;;4.47;;
74421;SDS011;62856;51.446;8.360;2022-08-19T19:47:41;17.42;;;4.72;;
74421;SDS011;62856;51.446;8.360;2022-08-19T19:50:11;9.63;;;5.13;;
74421;SDS011;62856;51.446;8.360;2022-08-19T19:52:37;8.65;;;4.90;;
74421;SDS011;62856;51.446;8.360;2022-08-19T19:55:03;10.25;;;5.30;;
74421;SDS011;62856;51.446;8.360;2022-08-19T19:57:29;8.85;;;5.13;;
74421;SDS011;62856;51.446;8.360;2022-08-19T19:59:56;14.75;;;6.13;;
74421;SDS011;62856;51.446;8.360;2022-08-19T20:02:22;12.85;;;6.78;;
74421;SDS011;62856;51.446;8.360;2022-08-19T20:04:49;10.10;;;5.90;;
74421;SDS011;62856;51.446;8.360;2022-08-19T20:07:15;12.77;;;5.78;;
74421;SDS011;62856;51.446;8.360;2022-08-19T20:09:40;10.93;;;5.72;;
74421;SDS011;62856;51.446;8.360;2022-08-19T20:12:06;11.73;;;5.80;;
74421;SDS011;62856;51.446;8.360;2022-08-19T20:14:32;10.93;;;5.47;;
74421;SDS011;62856;51.446;8.360;2022-08-19T20:17:00;10.88;;;6.40;;
74421;SDS011;62856;51.446;8.360;2022-08-19T20:19:31;10.95;;;5.47;;
74421;SDS011;62856;51.446;8.360;2022-08-19T20:22:01;9.35;;;5.35;;
74421;SDS011;62856;51.446;8.360;2022-08-19T20:24:31;12.70;;;5.57;;
74421;SDS011;62856;51.446;8.360;2022-08-19T20:26:59;10.73;;;5.55;;
74421;SDS011;62856;51.446;8.360;2022-08-19T20:29:25;11.27;;;6.20;;
74421;SDS011;62856;51.446;8.360;2022-08-19T20:31:51;11.60;;;5.88;;
74421;SDS011;62856;51.446;8.360;2022-08-19T20:34:17;10.88;;;5.78;;
74421;SDS011;62856;51.446;8.360;2022-08-19T20:36:43;11.05;;;6.22;;
74421;SDS011;62856;51.446;8.360;2022-08-19T20:39:09;12.25;;;6.13;;
74421;SDS011;62856;51.446;8.360;2022-08-19T20:41:35;12.52;;;6.50;;
74421;SDS011;62856;51.446;8.360;2022-08-19T20:44:01;11.18;;;6.68;;
74421;SDS011;62856;51.446;8.360;2022-08-19T20:46:28;13.50;;;6.22;;
74421;SDS011;62856;51.446;8.360;2022-08-19T20:48:54;12.40;;;7.00;;
74421;SDS011;62856;51.446;8.360;2022-08-19T20:51:20;10.52;;;6.18;;
74421;SDS011;62856;51.446;8.360;2022-08-19T20:53:46;12.05;;;6.60;;
74421;SDS011;62856;51.446;8.360;2022-08-19T20:56:11;12.65;;;6.40;;
74421;SDS011;62856;51.446;8.360;2022-08-19T20:58:36;14.35;;;7.18;;
74421;SDS011;62856;51.446;8.360;2022-08-19T21:01:02;12.55;;;6.35;;
74421;SDS011;62856;51.446;8.360;2022-08-19T21:03:30;12.95;;;6.82;;
74421;SDS011;62856;51.446;8.360;2022-08-19T21:05:58;13.32;;;6.30;;
74421;SDS011;62856;51.446;8.360;2022-08-19T21:08:24;12.17;;;6.57;;
74421;SDS011;62856;51.446;8.360;2022-08-19T21:10:51;12.40;;;7.20;;
74421;SDS011;62856;51.446;8.360;2022-08-19T21:13:18;13.10;;;6.88;;
74421;SDS011;62856;51.446;8.360;2022-08-19T21:15:45;11.70;;;6.82;;
74421;SDS011;62856;51.446;8.360;2022-08-19T21:18:12;13.30;;;7.13;;
74421;SDS011;62856;51.446;8.360;2022-08-19T21:20:40;11.90;;;7.13;;
74421;SDS011;62856;51.446;8.360;2022-08-19T21:23:10;12.35;;;6.38;;
74421;SDS011;62856;51.446;8.360;2022-08-19T21:25:38;11.30;;;6.22;;
74421;SDS011;62856;51.446;8.360;2022-08-19T21:28:04;13.05;;;7.97;;
74421;SDS011;62856;51.446;8.360;2022-08-19T21:30:30;12.63;;;7.03;;
74421;SDS011;62856;51.446;8.360;2022-08-19T21:32:55;11.80;;;6.90;;
74421;SDS011;62856;51.446;8.360;2022-08-19T21:35:23;14.50;;;7.60;;
74421;SDS011;62856;51.446;8.360;2022-08-19T21:37:49;13.77;;;7.05;;
74421;SDS011;62856;51.446;8.360;2022-08-19T21:40:15;13.13;;;8.00;;
74421;SDS011;62856;51.446;8.360;2022-08-19T21:42:41;14.55;;;8.32;;
74421;SDS011;62856;51.446;8.360;2022-08-19T21:45:07;14.13;;;8.63;;
74421;SDS011;62856;51.446;8.360;2022-08-19T21:47:34;15.13;;;8.65;;
74421;SDS011;62856;51.446;8.360;2022-08-19T21:50:00;14.40;;;8.02;;
74421;SDS011;62856;51.446;8.360;2022-08-19T21:52:25;15.65;;;7.38;;
74421;SDS011;62856;51.446;8.360;2022-08-19T21:54:51;15.80;;;7.55;;
74421;SDS011;62856;51.446;8.360;2022-08-19T21:57:17;16.40;;;7.78;;
74421;SDS011;62856;51.446;8.360;2022-08-19T21:59:42;14.77;;;7.32;;
74421;SDS011;62856;51.446;8.360;2022-08-19T22:02:08;15.55;;;8.18;;
74421;SDS011;62856;51.446;8.360;2022-08-19T22:04:34;15.70;;;8.00;;
74421;SDS011;62856;51.446;8.360;2022-08-19T22:07:00;15.93;;;8.77;;
74421;SDS011;62856;51.446;8.360;2022-08-19T22:09:25;14.70;;;8.30;;
74421;SDS011;62856;51.446;8.360;2022-08-19T22:11:51;15.70;;;8.68;;
74421;SDS011;62856;51.446;8.360;2022-08-19T22:14:16;12.97;;;7.60;;
74421;SDS011;62856;51.446;8.360;2022-08-19T22:16:41;15.23;;;8.40;;
74421;SDS011;62856;51.446;8.360;2022-08-19T22:19:07;14.38;;;8.82;;
74421;SDS011;62856;51.446;8.360;2022-08-19T22:21:33;15.40;;;8.43;;
74421;SDS011;62856;51.446;8.360;2022-08-19T22:24:00;16.02;;;8.73;;
74421;SDS011;62856;51.446;8.360;2022-08-19T22:26:26;17.90;;;9.38;;
74421;SDS011;62856;51.446;8.360;2022-08-19T22:28:51;17.25;;;8.85;;
74421;SDS011;62856;51.446;8.360;2022-08-19T22:31:16;18.63;;;9.38;;
74421;SDS011;62856;51.446;8.360;2022-08-19T22:33:42;18.75;;;8.65;;
74421;SDS011;62856;51.446;8.360;2022-08-19T22:36:07;19.27;;;9.20;;
74421;SDS011;62856;51.446;8.360;2022-08-19T22:38:33;18.20;;;8.65;;
74421;SDS011;62856;51.446;8.360;2022-08-19T22:41:00;18.92;;;8.60;;
74421;SDS011;62856;51.446;8.360;2022-08-19T22:43:27;18.35;;;8.63;;
74421;SDS011;62856;51.446;8.360;2022-08-19T22:45:54;18.05;;;8.18;;
74421;SDS011;62856;51.446;8.360;2022-08-19T22:48:22;17.05;;;7.93;;
74421;SDS011;62856;51.446;8.360;2022-08-19T22:50:51;18.52;;;8.73;;
74421;SDS011;62856;51.446;8.360;2022-08-19T22:53:38;15.15;;;7.40;;
74421;SDS011;62856;51.446;8.360;2022-08-19T22:56:05;20.67;;;8.80;;
74421;SDS011;62856;51.446;8.360;2022-08-19T23:00:58;17.02;;;7.85;;
74421;SDS011;62856;51.446;8.360;2022-08-19T23:03:24;20.50;;;8.32;;
74421;SDS011;62856;51.446;8.360;2022-08-19T23:05:50;19.98;;;8.40;;
74421;SDS011;62856;51.446;8.360;2022-08-19T23:08:15;19.55;;;7.97;;
74421;SDS011;62856;51.446;8.360;2022-08-19T23:10:41;15.90;;;8.50;;
74421;SDS011;62856;51.446;8.360;2022-08-19T23:13:06;14.45;;;8.20;;
74421;SDS011;62856;51.446;8.360;2022-08-19T23:15:32;19.15;;;9.10;;
74421;SDS011;62856;51.446;8.360;2022-08-19T23:17:58;15.45;;;7.28;;
74421;SDS011;62856;51.446;8.360;2022-08-19T23:20:27;15.05;;;7.32;;
74421;SDS011;62856;51.446;8.360;2022-08-19T23:22:59;15.60;;;7.88;;